Green Ice — C6SO4 — position and weather

sailwx.info

Track history (hours):
 
Tides and Currents Weather Stations Pressure Air Temp Water Temp Dewpoint Dewpoint Depression Visibility Wind Speed Wind Dir Waves Ship Positions

Green Ice

Last reported at 2015-Jan-30 02:10 UTC. Time now 2015-Jan-30 20:06 UTC.
Position N 66°02' E 012°40'.

Length 86 m; draft 6.8 m.

MMSI: 311411000.

Date/timePositionNaut miles runAvg speedWind from/ knotsBaromVisibWave heightAir tempDewpointWater temp
2015-Jan-30 02:10N 66°02' E 012°40'0 0.1
2015-Jan-30 01:14N 66°01' E 012°40'0 0.0
2015-Jan-30 00:28N 66°02' E 012°40'20 6.1
2015-Jan-29 21:11N 66°20' E 012°57'7 9.6
2015-Jan-29 20:29N 66°27' E 012°59'10 9.0
2015-Jan-29 19:26N 66°36' E 013°04'1611.9
2015-Jan-29 18:06N 66°51' E 013°19'811.5
2015-Jan-29 17:24N 66°58' E 013°30'1212.4
2015-Jan-29 16:24N 67°05' E 013°56'1012.2
2015-Jan-29 15:33N 67°14' E 014°09'1212.4
2015-Jan-29 14:33N 67°24' E 014°26'1212.0
2015-Jan-29 13:33N 67°36' E 014°18'155 6.2
2015-Jan-28 12:23N 69°35' E 018°50'5 6.1
2015-Jan-28 11:32N 69°39' E 018°58'0 0.0
2015-Jan-28 09:29N 69°39' E 018°58'0 0.0
2015-Jan-28 08:29N 69°39' E 018°58'0 0.0
2015-Jan-28 07:32N 69°39' E 018°58'0 0.0
2015-Jan-28 06:25N 69°39' E 018°58'0 0.0
2015-Jan-28 05:32N 69°39' E 018°58'0 0.0
2015-Jan-28 04:22N 69°39' E 018°58'0 0.0
2015-Jan-28 03:31N 69°39' E 018°58'0 0.0
2015-Jan-28 02:28N 69°39' E 018°58'0 0.0
2015-Jan-28 01:31N 69°39' E 018°58'2 1.8
2015-Jan-28 00:31N 69°38' E 018°57'0 0.0
2015-Jan-27 23:31N 69°38' E 018°57'0 0.0
2015-Jan-27 22:28N 69°38' E 018°57'1 1.4
2015-Jan-27 21:33N 69°39' E 018°58'4 3.2
2015-Jan-27 20:26N 69°42' E 019°01'0 0.0
2015-Jan-27 19:31N 69°42' E 019°01'8111.5
2015-Jan-27 12:31N 70°27' E 022°17'1313.3
2015-Jan-27 11:33N 70°31' E 022°55'1312.9
2015-Jan-27 10:33N 70°38' E 023°26'4 4.5
2015-Jan-27 09:33N 70°38' E 023°39'0 0.0
2015-Jan-27 08:33N 70°38' E 023°39'0 0.0
2015-Jan-27 07:34N 70°38' E 023°39'0 0.0
2015-Jan-27 06:33N 70°38' E 023°39'1 1.3
2015-Jan-27 05:33N 70°37' E 023°36'2 1.6
2015-Jan-27 04:33N 70°38' E 023°40'0 0.5
2015-Jan-27 03:33N 70°38' E 023°39'13 9.4
2015-Jan-27 02:08N 70°51' E 023°55'  
2015-Jan-24 20:03N 70°46' E 023°40'713.6
2015-Jan-24 19:34N 70°40' E 023°30'4 3.5
2015-Jan-24 18:32N 70°40' E 023°41'4 4.3
2015-Jan-24 17:34N 70°36' E 023°35'37 3.3
2015-Jan-24 06:27N 70°22' E 021°53'226 6.7
2015-Jan-22 20:30N 67°45' E 014°19'1313.3
2015-Jan-22 19:33N 67°32' E 014°21'1313.1
2015-Jan-22 18:33N 67°19' E 014°23'2 1.7
2015-Jan-22 17:33N 67°17' E 014°24'0 0.0
2015-Jan-22 16:33N 67°17' E 014°24'0 0.0
2015-Jan-22 15:33N 67°17' E 014°24'0 0.0
2015-Jan-22 14:33N 67°17' E 014°24'2 1.7
2015-Jan-22 13:33N 67°17' E 014°20'7 7.3
2015-Jan-22 12:34N 67°12' E 014°06'1713.6
2015-Jan-22 11:17N 66°58' E 013°38'2612.6
2015-Jan-22 09:13N 66°36' E 013°04'1011.9
2015-Jan-22 08:24N 66°26' E 012°59'96 9.4
2015-Jan-21 22:11N 64°57' E 011°31'913.6
2015-Jan-21 21:33N 64°52' E 011°16'8111.4
2015-Jan-21 14:26N 63°44' E 009°32'11 8.8
2015-Jan-21 13:14N 63°36' E 009°49'1014.1
2015-Jan-21 12:33N 63°29' E 010°02'1010.1
2015-Jan-21 11:32N 63°27' E 010°25'0 0.0
2015-Jan-21 10:32N 63°27' E 010°25'0 0.0
2015-Jan-21 09:32N 63°27' E 010°25'0 0.0
2015-Jan-21 08:32N 63°27' E 010°25'0 0.0
2015-Jan-21 07:32N 63°27' E 010°25'0 0.0
2015-Jan-21 06:32N 63°27' E 010°25'2 1.6
2015-Jan-21 05:33N 63°28' E 010°23'10 9.6
2015-Jan-21 04:33N 63°28' E 010°02'10 9.5
2015-Jan-21 03:33N 63°36' E 009°48'  
Track history (hours):
 
Tides and Currents Weather Stations Pressure Air Temp Water Temp Dewpoint Dewpoint Depression Visibility Wind Speed Wind Dir Waves Ship Positions

Green Ice

Last reported at 2015-Jan-30 02:10 UTC. Time now 2015-Jan-30 20:06 UTC.
Position N 66°02' E 012°40'.

Length 86 m; draft 6.8 m.

MMSI: 311411000.

Date/timePositionNaut miles runAvg speedWind from/ knotsBaromVisibWave heightAir tempDewpointWater temp
2015-Jan-30 02:10N 66°02' E 012°40'0 0.1
2015-Jan-30 01:14N 66°01' E 012°40'0 0.0
2015-Jan-30 00:28N 66°02' E 012°40'20 6.1
2015-Jan-29 21:11N 66°20' E 012°57'7 9.6
2015-Jan-29 20:29N 66°27' E 012°59'10 9.0
2015-Jan-29 19:26N 66°36' E 013°04'1611.9
2015-Jan-29 18:06N 66°51' E 013°19'811.5
2015-Jan-29 17:24N 66°58' E 013°30'1212.4
2015-Jan-29 16:24N 67°05' E 013°56'1012.2
2015-Jan-29 15:33N 67°14' E 014°09'1212.4
2015-Jan-29 14:33N 67°24' E 014°26'1212.0
2015-Jan-29 13:33N 67°36' E 014°18'155 6.2
2015-Jan-28 12:23N 69°35' E 018°50'5 6.1
2015-Jan-28 11:32N 69°39' E 018°58'0 0.0
2015-Jan-28 09:29N 69°39' E 018°58'0 0.0
2015-Jan-28 08:29N 69°39' E 018°58'0 0.0
2015-Jan-28 07:32N 69°39' E 018°58'0 0.0
2015-Jan-28 06:25N 69°39' E 018°58'0 0.0
2015-Jan-28 05:32N 69°39' E 018°58'0 0.0
2015-Jan-28 04:22N 69°39' E 018°58'0 0.0
2015-Jan-28 03:31N 69°39' E 018°58'0 0.0
2015-Jan-28 02:28N 69°39' E 018°58'0 0.0
2015-Jan-28 01:31N 69°39' E 018°58'2 1.8
2015-Jan-28 00:31N 69°38' E 018°57'0 0.0
2015-Jan-27 23:31N 69°38' E 018°57'0 0.0
2015-Jan-27 22:28N 69°38' E 018°57'1 1.4
2015-Jan-27 21:33N 69°39' E 018°58'4 3.2
2015-Jan-27 20:26N 69°42' E 019°01'0 0.0
2015-Jan-27 19:31N 69°42' E 019°01'8111.5
2015-Jan-27 12:31N 70°27' E 022°17'1313.3
2015-Jan-27 11:33N 70°31' E 022°55'1312.9
2015-Jan-27 10:33N 70°38' E 023°26'4 4.5
2015-Jan-27 09:33N 70°38' E 023°39'0 0.0
2015-Jan-27 08:33N 70°38' E 023°39'0 0.0
2015-Jan-27 07:34N 70°38' E 023°39'0 0.0
2015-Jan-27 06:33N 70°38' E 023°39'1 1.3
2015-Jan-27 05:33N 70°37' E 023°36'2 1.6
2015-Jan-27 04:33N 70°38' E 023°40'0 0.5
2015-Jan-27 03:33N 70°38' E 023°39'13 9.4
2015-Jan-27 02:08N 70°51' E 023°55'  
2015-Jan-24 20:03N 70°46' E 023°40'713.6
2015-Jan-24 19:34N 70°40' E 023°30'4 3.5
2015-Jan-24 18:32N 70°40' E 023°41'4 4.3
2015-Jan-24 17:34N 70°36' E 023°35'37 3.3
2015-Jan-24 06:27N 70°22' E 021°53'226 6.7
2015-Jan-22 20:30N 67°45' E 014°19'1313.3
2015-Jan-22 19:33N 67°32' E 014°21'1313.1
2015-Jan-22 18:33N 67°19' E 014°23'2 1.7
2015-Jan-22 17:33N 67°17' E 014°24'0 0.0
2015-Jan-22 16:33N 67°17' E 014°24'0 0.0
2015-Jan-22 15:33N 67°17' E 014°24'0 0.0
2015-Jan-22 14:33N 67°17' E 014°24'2 1.7
2015-Jan-22 13:33N 67°17' E 014°20'7 7.3
2015-Jan-22 12:34N 67°12' E 014°06'1713.6
2015-Jan-22 11:17N 66°58' E 013°38'2612.6
2015-Jan-22 09:13N 66°36' E 013°04'1011.9
2015-Jan-22 08:24N 66°26' E 012°59'96 9.4
2015-Jan-21 22:11N 64°57' E 011°31'913.6
2015-Jan-21 21:33N 64°52' E 011°16'8111.4
2015-Jan-21 14:26N 63°44' E 009°32'11 8.8
2015-Jan-21 13:14N 63°36' E 009°49'1014.1
2015-Jan-21 12:33N 63°29' E 010°02'1010.1
2015-Jan-21 11:32N 63°27' E 010°25'0 0.0
2015-Jan-21 10:32N 63°27' E 010°25'0 0.0
2015-Jan-21 09:32N 63°27' E 010°25'0 0.0
2015-Jan-21 08:32N 63°27' E 010°25'0 0.0
2015-Jan-21 07:32N 63°27' E 010°25'0 0.0
2015-Jan-21 06:32N 63°27' E 010°25'2 1.6
2015-Jan-21 05:33N 63°28' E 010°23'10 9.6
2015-Jan-21 04:33N 63°28' E 010°02'10 9.5
2015-Jan-21 03:33N 63°36' E 009°48'  

Dump ship's entire track history